sensor_id;sensor_type;location;lat;lon;timestamp;P1;durP1;ratioP1;P2;durP2;ratioP2
5127;SDS011;2582;48.770;9.190;2023-06-22T00:00:56;9.17;;;8.33;;
5127;SDS011;2582;48.770;9.190;2023-06-22T00:03:24;9.43;;;8.53;;
5127;SDS011;2582;48.770;9.190;2023-06-22T00:05:50;8.70;;;7.90;;
5127;SDS011;2582;48.770;9.190;2023-06-22T00:08:16;10.53;;;9.30;;
5127;SDS011;2582;48.770;9.190;2023-06-22T00:10:43;9.23;;;8.33;;
5127;SDS011;2582;48.770;9.190;2023-06-22T00:13:09;10.63;;;9.63;;
5127;SDS011;2582;48.770;9.190;2023-06-22T00:15:35;8.93;;;8.10;;
5127;SDS011;2582;48.770;9.190;2023-06-22T00:18:02;8.60;;;7.70;;
5127;SDS011;2582;48.770;9.190;2023-06-22T00:20:28;9.40;;;8.60;;
5127;SDS011;2582;48.770;9.190;2023-06-22T00:22:55;9.33;;;8.30;;
5127;SDS011;2582;48.770;9.190;2023-06-22T00:25:21;10.33;;;9.23;;
5127;SDS011;2582;48.770;9.190;2023-06-22T00:27:47;9.77;;;8.67;;
5127;SDS011;2582;48.770;9.190;2023-06-22T00:30:14;10.23;;;9.07;;
5127;SDS011;2582;48.770;9.190;2023-06-22T00:32:41;10.97;;;8.17;;
5127;SDS011;2582;48.770;9.190;2023-06-22T00:35:06;9.80;;;8.80;;
5127;SDS011;2582;48.770;9.190;2023-06-22T00:37:32;8.50;;;7.63;;
5127;SDS011;2582;48.770;9.190;2023-06-22T00:39:58;8.90;;;8.00;;
5127;SDS011;2582;48.770;9.190;2023-06-22T00:42:24;9.70;;;8.67;;
5127;SDS011;2582;48.770;9.190;2023-06-22T00:44:49;9.67;;;8.70;;
5127;SDS011;2582;48.770;9.190;2023-06-22T00:47:15;9.07;;;8.17;;
5127;SDS011;2582;48.770;9.190;2023-06-22T00:49:42;9.83;;;8.47;;
5127;SDS011;2582;48.770;9.190;2023-06-22T00:52:08;10.30;;;8.70;;
5127;SDS011;2582;48.770;9.190;2023-06-22T00:54:41;8.80;;;7.90;;
5127;SDS011;2582;48.770;9.190;2023-06-22T00:57:10;9.97;;;8.97;;
5127;SDS011;2582;48.770;9.190;2023-06-22T00:59:37;9.47;;;8.50;;
5127;SDS011;2582;48.770;9.190;2023-06-22T01:02:04;8.80;;;7.27;;
5127;SDS011;2582;48.770;9.190;2023-06-22T01:04:37;11.13;;;8.80;;
5127;SDS011;2582;48.770;9.190;2023-06-22T01:09:57;9.97;;;8.97;;
5127;SDS011;2582;48.770;9.190;2023-06-22T01:12:42;9.50;;;8.60;;
5127;SDS011;2582;48.770;9.190;2023-06-22T01:15:11;9.30;;;8.50;;
5127;SDS011;2582;48.770;9.190;2023-06-22T01:17:43;9.00;;;8.30;;
5127;SDS011;2582;48.770;9.190;2023-06-22T01:20:10;9.70;;;8.90;;
5127;SDS011;2582;48.770;9.190;2023-06-22T01:23:17;10.27;;;9.30;;
5127;SDS011;2582;48.770;9.190;2023-06-22T01:25:47;9.67;;;8.87;;
5127;SDS011;2582;48.770;9.190;2023-06-22T01:28:42;9.83;;;8.90;;
5127;SDS011;2582;48.770;9.190;2023-06-22T01:31:16;9.73;;;8.73;;
5127;SDS011;2582;48.770;9.190;2023-06-22T01:33:45;8.70;;;8.00;;
5127;SDS011;2582;48.770;9.190;2023-06-22T01:36:14;9.40;;;8.40;;
5127;SDS011;2582;48.770;9.190;2023-06-22T01:38:41;8.57;;;7.77;;
5127;SDS011;2582;48.770;9.190;2023-06-22T01:41:08;8.90;;;7.87;;
5127;SDS011;2582;48.770;9.190;2023-06-22T01:43:34;9.17;;;8.27;;
5127;SDS011;2582;48.770;9.190;2023-06-22T01:46:01;11.13;;;8.17;;
5127;SDS011;2582;48.770;9.190;2023-06-22T01:48:29;10.43;;;8.23;;
5127;SDS011;2582;48.770;9.190;2023-06-22T01:50:56;12.27;;;7.83;;
5127;SDS011;2582;48.770;9.190;2023-06-22T01:53:22;8.43;;;7.63;;
5127;SDS011;2582;48.770;9.190;2023-06-22T01:55:48;10.60;;;8.60;;
5127;SDS011;2582;48.770;9.190;2023-06-22T01:58:14;9.83;;;8.17;;
5127;SDS011;2582;48.770;9.190;2023-06-22T02:00:41;8.67;;;7.50;;
5127;SDS011;2582;48.770;9.190;2023-06-22T02:03:14;8.40;;;7.53;;
5127;SDS011;2582;48.770;9.190;2023-06-22T02:05:52;9.00;;;7.57;;
5127;SDS011;2582;48.770;9.190;2023-06-22T02:08:24;9.17;;;8.27;;
5127;SDS011;2582;48.770;9.190;2023-06-22T02:10:53;8.40;;;7.60;;
5127;SDS011;2582;48.770;9.190;2023-06-22T02:13:20;9.23;;;8.30;;
5127;SDS011;2582;48.770;9.190;2023-06-22T02:15:49;8.60;;;7.80;;
5127;SDS011;2582;48.770;9.190;2023-06-22T02:18:15;10.30;;;8.33;;
5127;SDS011;2582;48.770;9.190;2023-06-22T02:20:40;8.37;;;7.50;;
5127;SDS011;2582;48.770;9.190;2023-06-22T02:23:06;7.90;;;7.07;;
5127;SDS011;2582;48.770;9.190;2023-06-22T02:25:32;8.27;;;7.47;;
5127;SDS011;2582;48.770;9.190;2023-06-22T02:27:58;9.20;;;7.60;;
5127;SDS011;2582;48.770;9.190;2023-06-22T02:30:24;8.30;;;7.60;;
5127;SDS011;2582;48.770;9.190;2023-06-22T02:32:50;10.60;;;9.57;;
5127;SDS011;2582;48.770;9.190;2023-06-22T02:35:23;9.10;;;8.30;;
5127;SDS011;2582;48.770;9.190;2023-06-22T02:37:56;8.70;;;7.80;;
5127;SDS011;2582;48.770;9.190;2023-06-22T02:40:24;9.90;;;8.40;;
5127;SDS011;2582;48.770;9.190;2023-06-22T02:42:49;8.30;;;7.50;;
5127;SDS011;2582;48.770;9.190;2023-06-22T02:45:15;9.43;;;8.40;;
5127;SDS011;2582;48.770;9.190;2023-06-22T02:47:40;9.50;;;8.60;;
5127;SDS011;2582;48.770;9.190;2023-06-22T02:50:06;10.13;;;9.13;;
5127;SDS011;2582;48.770;9.190;2023-06-22T02:52:32;10.53;;;9.43;;
5127;SDS011;2582;48.770;9.190;2023-06-22T02:54:57;9.93;;;9.00;;
5127;SDS011;2582;48.770;9.190;2023-06-22T02:57:23;9.97;;;8.83;;
5127;SDS011;2582;48.770;9.190;2023-06-22T02:59:48;10.23;;;9.23;;
5127;SDS011;2582;48.770;9.190;2023-06-22T03:02:14;11.90;;;9.57;;
5127;SDS011;2582;48.770;9.190;2023-06-22T03:04:39;12.53;;;10.40;;
5127;SDS011;2582;48.770;9.190;2023-06-22T03:07:05;9.47;;;8.50;;
5127;SDS011;2582;48.770;9.190;2023-06-22T03:09:30;10.80;;;9.77;;
5127;SDS011;2582;48.770;9.190;2023-06-22T03:11:56;12.30;;;10.30;;
5127;SDS011;2582;48.770;9.190;2023-06-22T03:14:22;11.20;;;8.67;;
5127;SDS011;2582;48.770;9.190;2023-06-22T03:16:48;11.90;;;9.73;;
5127;SDS011;2582;48.770;9.190;2023-06-22T03:19:13;11.30;;;10.20;;
5127;SDS011;2582;48.770;9.190;2023-06-22T03:21:39;10.73;;;9.30;;
5127;SDS011;2582;48.770;9.190;2023-06-22T03:24:05;11.00;;;10.10;;
5127;SDS011;2582;48.770;9.190;2023-06-22T03:26:31;11.83;;;10.73;;
5127;SDS011;2582;48.770;9.190;2023-06-22T03:28:57;10.33;;;9.20;;
5127;SDS011;2582;48.770;9.190;2023-06-22T03:31:23;12.93;;;11.60;;
5127;SDS011;2582;48.770;9.190;2023-06-22T03:33:49;10.57;;;9.60;;
5127;SDS011;2582;48.770;9.190;2023-06-22T03:36:15;10.63;;;9.83;;
5127;SDS011;2582;48.770;9.190;2023-06-22T03:38:44;10.47;;;9.57;;
5127;SDS011;2582;48.770;9.190;2023-06-22T03:41:13;13.23;;;10.87;;
5127;SDS011;2582;48.770;9.190;2023-06-22T03:43:38;10.07;;;8.57;;
5127;SDS011;2582;48.770;9.190;2023-06-22T03:46:04;10.80;;;9.80;;
5127;SDS011;2582;48.770;9.190;2023-06-22T03:48:30;11.73;;;10.17;;
5127;SDS011;2582;48.770;9.190;2023-06-22T03:50:56;10.33;;;9.23;;
5127;SDS011;2582;48.770;9.190;2023-06-22T03:53:21;12.00;;;10.23;;
5127;SDS011;2582;48.770;9.190;2023-06-22T03:55:47;12.00;;;10.00;;
5127;SDS011;2582;48.770;9.190;2023-06-22T03:58:15;10.63;;;9.53;;
5127;SDS011;2582;48.770;9.190;2023-06-22T04:00:41;11.00;;;9.90;;
5127;SDS011;2582;48.770;9.190;2023-06-22T04:03:06;11.60;;;10.60;;
5127;SDS011;2582;48.770;9.190;2023-06-22T04:05:32;11.00;;;10.00;;
5127;SDS011;2582;48.770;9.190;2023-06-22T04:07:58;13.80;;;10.97;;
5127;SDS011;2582;48.770;9.190;2023-06-22T04:10:23;9.50;;;8.70;;
5127;SDS011;2582;48.770;9.190;2023-06-22T04:12:49;9.57;;;8.60;;
5127;SDS011;2582;48.770;9.190;2023-06-22T04:15:15;11.17;;;10.13;;
5127;SDS011;2582;48.770;9.190;2023-06-22T04:17:40;10.77;;;9.77;;
5127;SDS011;2582;48.770;9.190;2023-06-22T04:20:06;11.23;;;10.00;;
5127;SDS011;2582;48.770;9.190;2023-06-22T04:22:32;11.30;;;10.30;;
5127;SDS011;2582;48.770;9.190;2023-06-22T04:24:58;10.50;;;9.60;;
5127;SDS011;2582;48.770;9.190;2023-06-22T04:27:23;10.40;;;9.40;;
5127;SDS011;2582;48.770;9.190;2023-06-22T04:29:49;10.80;;;9.70;;
5127;SDS011;2582;48.770;9.190;2023-06-22T04:32:16;11.83;;;10.40;;
5127;SDS011;2582;48.770;9.190;2023-06-22T04:34:41;9.30;;;8.50;;
5127;SDS011;2582;48.770;9.190;2023-06-22T04:37:07;9.70;;;8.67;;
5127;SDS011;2582;48.770;9.190;2023-06-22T04:39:33;10.43;;;9.43;;
5127;SDS011;2582;48.770;9.190;2023-06-22T04:41:59;10.50;;;9.50;;
5127;SDS011;2582;48.770;9.190;2023-06-22T04:44:25;10.47;;;9.47;;
5127;SDS011;2582;48.770;9.190;2023-06-22T04:46:55;9.57;;;8.70;;
5127;SDS011;2582;48.770;9.190;2023-06-22T04:49:25;10.20;;;9.20;;
5127;SDS011;2582;48.770;9.190;2023-06-22T04:51:57;10.47;;;9.47;;
5127;SDS011;2582;48.770;9.190;2023-06-22T04:54:30;11.70;;;10.57;;
5127;SDS011;2582;48.770;9.190;2023-06-22T04:56:58;10.77;;;9.67;;
5127;SDS011;2582;48.770;9.190;2023-06-22T04:59:28;9.90;;;8.90;;
5127;SDS011;2582;48.770;9.190;2023-06-22T05:01:59;9.80;;;8.50;;
5127;SDS011;2582;48.770;9.190;2023-06-22T05:04:27;12.50;;;9.97;;
5127;SDS011;2582;48.770;9.190;2023-06-22T05:06:56;10.17;;;9.10;;
5127;SDS011;2582;48.770;9.190;2023-06-22T05:09:22;10.20;;;9.00;;
5127;SDS011;2582;48.770;9.190;2023-06-22T05:11:48;15.07;;;10.43;;
5127;SDS011;2582;48.770;9.190;2023-06-22T05:14:14;11.53;;;10.40;;
5127;SDS011;2582;48.770;9.190;2023-06-22T05:16:40;11.57;;;10.40;;
5127;SDS011;2582;48.770;9.190;2023-06-22T05:19:07;12.57;;;11.30;;
5127;SDS011;2582;48.770;9.190;2023-06-22T05:21:33;13.13;;;11.93;;
5127;SDS011;2582;48.770;9.190;2023-06-22T05:23:58;14.80;;;11.50;;
5127;SDS011;2582;48.770;9.190;2023-06-22T05:26:28;15.13;;;12.07;;
5127;SDS011;2582;48.770;9.190;2023-06-22T05:28:55;12.43;;;11.27;;
5127;SDS011;2582;48.770;9.190;2023-06-22T05:31:21;10.87;;;9.77;;
5127;SDS011;2582;48.770;9.190;2023-06-22T05:33:47;11.83;;;10.70;;
5127;SDS011;2582;48.770;9.190;2023-06-22T05:36:14;10.97;;;9.90;;
5127;SDS011;2582;48.770;9.190;2023-06-22T05:38:39;11.03;;;9.60;;
5127;SDS011;2582;48.770;9.190;2023-06-22T05:41:05;13.90;;;11.27;;
5127;SDS011;2582;48.770;9.190;2023-06-22T05:43:31;12.30;;;9.77;;
5127;SDS011;2582;48.770;9.190;2023-06-22T05:45:57;10.97;;;9.53;;
5127;SDS011;2582;48.770;9.190;2023-06-22T05:48:24;15.30;;;10.30;;
5127;SDS011;2582;48.770;9.190;2023-06-22T05:50:50;12.80;;;9.77;;
5127;SDS011;2582;48.770;9.190;2023-06-22T05:53:15;12.57;;;10.80;;
5127;SDS011;2582;48.770;9.190;2023-06-22T05:55:41;11.03;;;10.00;;
5127;SDS011;2582;48.770;9.190;2023-06-22T05:58:07;10.47;;;7.97;;
5127;SDS011;2582;48.770;9.190;2023-06-22T06:00:33;9.53;;;8.47;;
5127;SDS011;2582;48.770;9.190;2023-06-22T06:03:00;10.30;;;8.90;;
5127;SDS011;2582;48.770;9.190;2023-06-22T06:05:29;13.47;;;10.00;;
5127;SDS011;2582;48.770;9.190;2023-06-22T06:07:55;11.50;;;9.50;;
5127;SDS011;2582;48.770;9.190;2023-06-22T06:10:21;10.97;;;9.90;;
5127;SDS011;2582;48.770;9.190;2023-06-22T06:12:47;11.00;;;9.90;;
5127;SDS011;2582;48.770;9.190;2023-06-22T06:15:12;12.70;;;9.70;;
5127;SDS011;2582;48.770;9.190;2023-06-22T06:17:50;10.40;;;9.00;;
5127;SDS011;2582;48.770;9.190;2023-06-22T06:20:21;11.40;;;9.50;;
5127;SDS011;2582;48.770;9.190;2023-06-22T06:22:47;10.57;;;9.50;;
5127;SDS011;2582;48.770;9.190;2023-06-22T06:25:14;10.50;;;9.50;;
5127;SDS011;2582;48.770;9.190;2023-06-22T06:27:48;10.87;;;9.50;;
5127;SDS011;2582;48.770;9.190;2023-06-22T06:30:16;9.67;;;8.77;;
5127;SDS011;2582;48.770;9.190;2023-06-22T06:32:43;9.70;;;8.33;;
5127;SDS011;2582;48.770;9.190;2023-06-22T06:35:10;8.70;;;7.70;;
5127;SDS011;2582;48.770;9.190;2023-06-22T06:37:38;9.13;;;8.23;;
5127;SDS011;2582;48.770;9.190;2023-06-22T06:40:05;8.50;;;7.67;;
5127;SDS011;2582;48.770;9.190;2023-06-22T06:42:45;8.97;;;8.17;;
5127;SDS011;2582;48.770;9.190;2023-06-22T06:45:16;10.57;;;8.00;;
5127;SDS011;2582;48.770;9.190;2023-06-22T06:47:47;8.00;;;7.30;;
5127;SDS011;2582;48.770;9.190;2023-06-22T06:50:14;15.37;;;8.97;;
5127;SDS011;2582;48.770;9.190;2023-06-22T06:52:40;8.50;;;7.70;;
5127;SDS011;2582;48.770;9.190;2023-06-22T06:55:06;9.80;;;8.20;;
5127;SDS011;2582;48.770;9.190;2023-06-22T06:57:36;9.13;;;8.23;;
5127;SDS011;2582;48.770;9.190;2023-06-22T07:00:08;8.33;;;7.50;;
5127;SDS011;2582;48.770;9.190;2023-06-22T07:02:39;9.27;;;8.10;;
5127;SDS011;2582;48.770;9.190;2023-06-22T07:05:07;10.63;;;7.83;;
5127;SDS011;2582;48.770;9.190;2023-06-22T07:07:33;7.60;;;6.90;;
5127;SDS011;2582;48.770;9.190;2023-06-22T07:09:59;11.53;;;8.27;;
5127;SDS011;2582;48.770;9.190;2023-06-22T07:12:25;8.57;;;7.33;;
5127;SDS011;2582;48.770;9.190;2023-06-22T07:14:51;8.00;;;7.20;;
5127;SDS011;2582;48.770;9.190;2023-06-22T07:17:17;9.53;;;8.13;;
5127;SDS011;2582;48.770;9.190;2023-06-22T07:19:43;7.63;;;6.93;;
5127;SDS011;2582;48.770;9.190;2023-06-22T07:22:08;9.00;;;8.20;;
5127;SDS011;2582;48.770;9.190;2023-06-22T07:24:34;8.20;;;6.70;;
5127;SDS011;2582;48.770;9.190;2023-06-22T07:26:59;10.50;;;7.57;;
5127;SDS011;2582;48.770;9.190;2023-06-22T07:29:27;9.37;;;7.63;;
5127;SDS011;2582;48.770;9.190;2023-06-22T07:31:53;7.83;;;7.13;;
5127;SDS011;2582;48.770;9.190;2023-06-22T07:34:21;8.87;;;7.33;;
5127;SDS011;2582;48.770;9.190;2023-06-22T07:36:46;8.40;;;7.60;;
5127;SDS011;2582;48.770;9.190;2023-06-22T07:39:12;11.67;;;7.80;;
5127;SDS011;2582;48.770;9.190;2023-06-22T07:41:38;7.97;;;6.93;;
5127;SDS011;2582;48.770;9.190;2023-06-22T07:44:05;8.40;;;7.00;;
5127;SDS011;2582;48.770;9.190;2023-06-22T07:46:31;8.00;;;7.20;;
5127;SDS011;2582;48.770;9.190;2023-06-22T07:48:57;12.60;;;8.10;;
5127;SDS011;2582;48.770;9.190;2023-06-22T07:51:23;9.50;;;6.77;;
5127;SDS011;2582;48.770;9.190;2023-06-22T07:53:49;7.27;;;5.83;;
5127;SDS011;2582;48.770;9.190;2023-06-22T07:56:15;7.80;;;6.17;;
5127;SDS011;2582;48.770;9.190;2023-06-22T07:58:44;11.50;;;6.37;;
5127;SDS011;2582;48.770;9.190;2023-06-22T08:01:11;8.30;;;6.40;;
5127;SDS011;2582;48.770;9.190;2023-06-22T08:03:36;7.87;;;6.30;;
5127;SDS011;2582;48.770;9.190;2023-06-22T08:06:02;7.10;;;6.20;;
5127;SDS011;2582;48.770;9.190;2023-06-22T08:08:28;8.00;;;6.10;;
5127;SDS011;2582;48.770;9.190;2023-06-22T08:10:53;8.87;;;6.43;;
5127;SDS011;2582;48.770;9.190;2023-06-22T08:13:19;7.70;;;6.60;;
5127;SDS011;2582;48.770;9.190;2023-06-22T08:15:45;10.73;;;6.30;;
5127;SDS011;2582;48.770;9.190;2023-06-22T08:18:10;8.27;;;6.60;;
5127;SDS011;2582;48.770;9.190;2023-06-22T08:20:36;11.93;;;6.20;;
5127;SDS011;2582;48.770;9.190;2023-06-22T08:23:01;7.30;;;6.60;;
5127;SDS011;2582;48.770;9.190;2023-06-22T08:25:31;8.07;;;7.07;;
5127;SDS011;2582;48.770;9.190;2023-06-22T08:28:00;9.00;;;7.30;;
5127;SDS011;2582;48.770;9.190;2023-06-22T08:30:26;8.60;;;6.10;;
5127;SDS011;2582;48.770;9.190;2023-06-22T08:32:51;7.70;;;6.00;;
5127;SDS011;2582;48.770;9.190;2023-06-22T08:35:18;12.37;;;7.17;;
5127;SDS011;2582;48.770;9.190;2023-06-22T08:37:44;8.97;;;5.77;;
5127;SDS011;2582;48.770;9.190;2023-06-22T08:40:15;9.83;;;5.93;;
5127;SDS011;2582;48.770;9.190;2023-06-22T08:42:41;10.20;;;5.67;;
5127;SDS011;2582;48.770;9.190;2023-06-22T08:45:06;9.80;;;6.00;;
5127;SDS011;2582;48.770;9.190;2023-06-22T08:47:32;7.80;;;5.50;;
5127;SDS011;2582;48.770;9.190;2023-06-22T08:49:58;9.20;;;5.80;;
5127;SDS011;2582;48.770;9.190;2023-06-22T08:52:24;6.83;;;6.13;;
5127;SDS011;2582;48.770;9.190;2023-06-22T08:54:49;6.40;;;5.50;;
5127;SDS011;2582;48.770;9.190;2023-06-22T08:57:16;8.83;;;6.40;;
5127;SDS011;2582;48.770;9.190;2023-06-22T08:59:42;8.07;;;6.00;;
5127;SDS011;2582;48.770;9.190;2023-06-22T09:02:07;9.10;;;6.50;;
5127;SDS011;2582;48.770;9.190;2023-06-22T09:04:33;8.70;;;6.20;;
5127;SDS011;2582;48.770;9.190;2023-06-22T09:07:00;8.47;;;6.67;;
5127;SDS011;2582;48.770;9.190;2023-06-22T09:09:26;7.47;;;5.87;;
5127;SDS011;2582;48.770;9.190;2023-06-22T09:11:52;8.70;;;6.10;;
5127;SDS011;2582;48.770;9.190;2023-06-22T09:14:17;9.73;;;7.00;;
5127;SDS011;2582;48.770;9.190;2023-06-22T09:16:43;9.97;;;6.37;;
5127;SDS011;2582;48.770;9.190;2023-06-22T09:19:09;11.03;;;6.93;;
5127;SDS011;2582;48.770;9.190;2023-06-22T09:21:35;11.60;;;7.03;;
5127;SDS011;2582;48.770;9.190;2023-06-22T09:24:01;8.87;;;6.57;;
5127;SDS011;2582;48.770;9.190;2023-06-22T09:26:27;9.50;;;6.80;;
5127;SDS011;2582;48.770;9.190;2023-06-22T09:28:52;8.10;;;6.40;;
5127;SDS011;2582;48.770;9.190;2023-06-22T09:31:18;6.20;;;5.60;;
5127;SDS011;2582;48.770;9.190;2023-06-22T09:33:50;10.77;;;6.77;;
5127;SDS011;2582;48.770;9.190;2023-06-22T09:36:16;8.90;;;7.10;;
5127;SDS011;2582;48.770;9.190;2023-06-22T09:38:42;8.37;;;6.20;;
5127;SDS011;2582;48.770;9.190;2023-06-22T09:41:07;9.23;;;7.37;;
5127;SDS011;2582;48.770;9.190;2023-06-22T09:43:33;6.50;;;5.80;;
5127;SDS011;2582;48.770;9.190;2023-06-22T09:46:02;7.83;;;5.53;;
5127;SDS011;2582;48.770;9.190;2023-06-22T09:48:28;14.90;;;7.40;;
5127;SDS011;2582;48.770;9.190;2023-06-22T09:50:56;10.43;;;6.03;;
5127;SDS011;2582;48.770;9.190;2023-06-22T09:53:22;10.77;;;6.27;;
5127;SDS011;2582;48.770;9.190;2023-06-22T09:55:47;11.10;;;6.47;;
5127;SDS011;2582;48.770;9.190;2023-06-22T09:58:13;8.90;;;6.33;;
5127;SDS011;2582;48.770;9.190;2023-06-22T10:00:39;10.40;;;6.60;;
5127;SDS011;2582;48.770;9.190;2023-06-22T10:03:06;18.73;;;7.13;;
5127;SDS011;2582;48.770;9.190;2023-06-22T10:05:32;8.07;;;5.93;;
5127;SDS011;2582;48.770;9.190;2023-06-22T10:07:57;9.50;;;6.43;;
5127;SDS011;2582;48.770;9.190;2023-06-22T10:10:23;9.83;;;5.90;;
5127;SDS011;2582;48.770;9.190;2023-06-22T10:12:54;12.03;;;6.70;;
5127;SDS011;2582;48.770;9.190;2023-06-22T10:15:22;9.97;;;6.27;;
5127;SDS011;2582;48.770;9.190;2023-06-22T10:17:48;11.63;;;6.20;;
5127;SDS011;2582;48.770;9.190;2023-06-22T10:20:13;12.70;;;6.10;;
5127;SDS011;2582;48.770;9.190;2023-06-22T10:22:40;10.90;;;6.57;;
5127;SDS011;2582;48.770;9.190;2023-06-22T10:25:06;8.70;;;5.97;;
5127;SDS011;2582;48.770;9.190;2023-06-22T10:27:32;11.30;;;6.33;;
5127;SDS011;2582;48.770;9.190;2023-06-22T10:29:58;9.77;;;6.27;;
5127;SDS011;2582;48.770;9.190;2023-06-22T10:32:24;13.40;;;7.47;;
5127;SDS011;2582;48.770;9.190;2023-06-22T10:34:49;12.37;;;7.13;;
5127;SDS011;2582;48.770;9.190;2023-06-22T10:37:15;12.00;;;6.63;;
5127;SDS011;2582;48.770;9.190;2023-06-22T10:39:41;10.23;;;6.03;;
5127;SDS011;2582;48.770;9.190;2023-06-22T10:42:06;9.33;;;5.80;;
5127;SDS011;2582;48.770;9.190;2023-06-22T10:44:32;9.70;;;6.03;;
5127;SDS011;2582;48.770;9.190;2023-06-22T10:46:57;9.17;;;6.27;;
5127;SDS011;2582;48.770;9.190;2023-06-22T10:49:23;14.43;;;6.93;;
5127;SDS011;2582;48.770;9.190;2023-06-22T10:51:49;8.77;;;6.43;;
5127;SDS011;2582;48.770;9.190;2023-06-22T10:54:14;11.70;;;6.50;;
5127;SDS011;2582;48.770;9.190;2023-06-22T10:56:43;10.60;;;6.70;;
5127;SDS011;2582;48.770;9.190;2023-06-22T10:59:08;10.27;;;6.70;;
5127;SDS011;2582;48.770;9.190;2023-06-22T11:01:34;16.43;;;7.03;;
5127;SDS011;2582;48.770;9.190;2023-06-22T11:04:00;13.90;;;6.23;;
5127;SDS011;2582;48.770;9.190;2023-06-22T11:06:25;8.93;;;6.80;;
5127;SDS011;2582;48.770;9.190;2023-06-22T11:08:51;12.47;;;7.30;;
5127;SDS011;2582;48.770;9.190;2023-06-22T11:11:17;8.60;;;7.10;;
5127;SDS011;2582;48.770;9.190;2023-06-22T11:13:43;9.50;;;7.30;;
5127;SDS011;2582;48.770;9.190;2023-06-22T11:16:09;7.20;;;6.50;;
5127;SDS011;2582;48.770;9.190;2023-06-22T11:18:35;9.73;;;6.70;;
5127;SDS011;2582;48.770;9.190;2023-06-22T11:21:01;12.73;;;6.77;;
5127;SDS011;2582;48.770;9.190;2023-06-22T11:23:26;9.30;;;7.33;;
5127;SDS011;2582;48.770;9.190;2023-06-22T11:25:53;10.87;;;6.73;;
5127;SDS011;2582;48.770;9.190;2023-06-22T11:28:19;10.40;;;6.60;;
5127;SDS011;2582;48.770;9.190;2023-06-22T11:30:45;10.80;;;7.43;;
5127;SDS011;2582;48.770;9.190;2023-06-22T11:33:10;9.93;;;6.37;;
5127;SDS011;2582;48.770;9.190;2023-06-22T11:35:36;11.53;;;6.27;;
5127;SDS011;2582;48.770;9.190;2023-06-22T11:38:02;12.60;;;7.00;;
5127;SDS011;2582;48.770;9.190;2023-06-22T11:40:29;8.67;;;6.07;;
5127;SDS011;2582;48.770;9.190;2023-06-22T11:42:54;11.67;;;6.40;;
5127;SDS011;2582;48.770;9.190;2023-06-22T11:45:20;9.90;;;7.33;;
5127;SDS011;2582;48.770;9.190;2023-06-22T11:47:46;10.83;;;7.47;;
5127;SDS011;2582;48.770;9.190;2023-06-22T11:50:11;8.43;;;6.90;;
5127;SDS011;2582;48.770;9.190;2023-06-22T11:52:37;11.07;;;7.00;;
5127;SDS011;2582;48.770;9.190;2023-06-22T11:55:03;8.50;;;6.77;;
5127;SDS011;2582;48.770;9.190;2023-06-22T11:57:30;8.23;;;6.90;;
5127;SDS011;2582;48.770;9.190;2023-06-22T11:59:58;9.77;;;6.60;;
5127;SDS011;2582;48.770;9.190;2023-06-22T12:02:23;10.27;;;7.20;;
5127;SDS011;2582;48.770;9.190;2023-06-22T12:04:49;11.30;;;6.70;;
5127;SDS011;2582;48.770;9.190;2023-06-22T12:07:17;8.47;;;6.50;;
5127;SDS011;2582;48.770;9.190;2023-06-22T12:09:43;11.07;;;6.93;;
5127;SDS011;2582;48.770;9.190;2023-06-22T12:12:09;8.10;;;6.03;;
5127;SDS011;2582;48.770;9.190;2023-06-22T12:14:34;9.20;;;6.30;;
5127;SDS011;2582;48.770;9.190;2023-06-22T12:17:00;9.63;;;6.90;;
5127;SDS011;2582;48.770;9.190;2023-06-22T12:19:26;9.83;;;6.50;;
5127;SDS011;2582;48.770;9.190;2023-06-22T12:21:51;14.30;;;6.90;;
5127;SDS011;2582;48.770;9.190;2023-06-22T12:24:17;12.63;;;6.60;;
5127;SDS011;2582;48.770;9.190;2023-06-22T12:26:42;10.63;;;6.80;;
5127;SDS011;2582;48.770;9.190;2023-06-22T12:29:08;9.90;;;7.63;;
5127;SDS011;2582;48.770;9.190;2023-06-22T12:31:35;12.60;;;7.70;;
5127;SDS011;2582;48.770;9.190;2023-06-22T12:34:03;13.30;;;7.10;;
5127;SDS011;2582;48.770;9.190;2023-06-22T12:36:29;12.07;;;7.33;;
5127;SDS011;2582;48.770;9.190;2023-06-22T12:38:54;12.37;;;7.57;;
5127;SDS011;2582;48.770;9.190;2023-06-22T12:41:20;11.43;;;6.43;;
5127;SDS011;2582;48.770;9.190;2023-06-22T12:43:46;13.60;;;7.30;;
5127;SDS011;2582;48.770;9.190;2023-06-22T12:46:12;10.10;;;7.10;;
5127;SDS011;2582;48.770;9.190;2023-06-22T12:48:37;10.10;;;7.10;;
5127;SDS011;2582;48.770;9.190;2023-06-22T12:51:07;8.83;;;7.10;;
5127;SDS011;2582;48.770;9.190;2023-06-22T12:53:33;10.50;;;7.30;;
5127;SDS011;2582;48.770;9.190;2023-06-22T12:55:59;13.70;;;8.30;;
5127;SDS011;2582;48.770;9.190;2023-06-22T12:58:24;10.47;;;7.20;;
5127;SDS011;2582;48.770;9.190;2023-06-22T13:00:50;13.37;;;7.10;;
5127;SDS011;2582;48.770;9.190;2023-06-22T13:03:15;11.30;;;7.00;;
5127;SDS011;2582;48.770;9.190;2023-06-22T13:05:41;8.07;;;5.93;;
5127;SDS011;2582;48.770;9.190;2023-06-22T13:08:07;15.93;;;6.90;;
5127;SDS011;2582;48.770;9.190;2023-06-22T13:10:33;10.40;;;6.60;;
5127;SDS011;2582;48.770;9.190;2023-06-22T13:12:58;7.30;;;6.23;;
5127;SDS011;2582;48.770;9.190;2023-06-22T13:15:26;13.60;;;7.50;;
5127;SDS011;2582;48.770;9.190;2023-06-22T13:17:55;9.80;;;7.03;;
5127;SDS011;2582;48.770;9.190;2023-06-22T13:20:21;9.80;;;8.27;;
5127;SDS011;2582;48.770;9.190;2023-06-22T13:22:46;10.43;;;8.90;;
5127;SDS011;2582;48.770;9.190;2023-06-22T13:25:12;13.23;;;6.87;;
5127;SDS011;2582;48.770;9.190;2023-06-22T13:27:39;11.80;;;7.77;;
5127;SDS011;2582;48.770;9.190;2023-06-22T13:30:08;10.63;;;6.40;;
5127;SDS011;2582;48.770;9.190;2023-06-22T13:32:34;14.43;;;7.17;;
5127;SDS011;2582;48.770;9.190;2023-06-22T13:35:00;12.20;;;6.63;;
5127;SDS011;2582;48.770;9.190;2023-06-22T13:37:25;11.00;;;7.80;;
5127;SDS011;2582;48.770;9.190;2023-06-22T13:39:52;8.80;;;6.40;;
5127;SDS011;2582;48.770;9.190;2023-06-22T13:42:17;10.00;;;6.20;;
5127;SDS011;2582;48.770;9.190;2023-06-22T13:44:43;9.33;;;7.10;;
5127;SDS011;2582;48.770;9.190;2023-06-22T13:47:09;11.20;;;6.53;;
5127;SDS011;2582;48.770;9.190;2023-06-22T13:49:34;9.83;;;6.60;;
5127;SDS011;2582;48.770;9.190;2023-06-22T13:52:00;16.17;;;7.17;;
5127;SDS011;2582;48.770;9.190;2023-06-22T13:54:25;9.40;;;6.97;;
5127;SDS011;2582;48.770;9.190;2023-06-22T13:56:51;15.73;;;7.13;;
5127;SDS011;2582;48.770;9.190;2023-06-22T13:59:17;8.33;;;6.53;;
5127;SDS011;2582;48.770;9.190;2023-06-22T14:01:42;10.90;;;6.70;;
5127;SDS011;2582;48.770;9.190;2023-06-22T14:04:08;14.70;;;7.07;;
5127;SDS011;2582;48.770;9.190;2023-06-22T14:06:34;10.23;;;6.33;;
5127;SDS011;2582;48.770;9.190;2023-06-22T14:09:00;9.57;;;6.60;;
5127;SDS011;2582;48.770;9.190;2023-06-22T14:11:25;8.70;;;6.67;;
5127;SDS011;2582;48.770;9.190;2023-06-22T14:13:51;18.73;;;6.63;;
5127;SDS011;2582;48.770;9.190;2023-06-22T14:16:17;8.83;;;5.30;;
5127;SDS011;2582;48.770;9.190;2023-06-22T14:18:42;10.23;;;5.37;;
5127;SDS011;2582;48.770;9.190;2023-06-22T14:21:08;9.60;;;6.00;;
5127;SDS011;2582;48.770;9.190;2023-06-22T14:23:33;10.07;;;5.97;;
5127;SDS011;2582;48.770;9.190;2023-06-22T14:25:59;10.00;;;5.90;;
5127;SDS011;2582;48.770;9.190;2023-06-22T14:28:24;10.43;;;6.03;;
5127;SDS011;2582;48.770;9.190;2023-06-22T14:30:50;9.10;;;5.60;;
5127;SDS011;2582;48.770;9.190;2023-06-22T14:33:15;7.67;;;5.53;;
5127;SDS011;2582;48.770;9.190;2023-06-22T14:35:41;5.80;;;5.20;;
5127;SDS011;2582;48.770;9.190;2023-06-22T14:38:06;8.93;;;4.93;;
5127;SDS011;2582;48.770;9.190;2023-06-22T14:40:32;10.17;;;5.83;;
5127;SDS011;2582;48.770;9.190;2023-06-22T14:42:58;9.10;;;5.80;;
5127;SDS011;2582;48.770;9.190;2023-06-22T14:45:23;11.13;;;4.47;;
5127;SDS011;2582;48.770;9.190;2023-06-22T14:47:49;7.60;;;5.23;;
5127;SDS011;2582;48.770;9.190;2023-06-22T14:50:15;7.23;;;4.40;;
5127;SDS011;2582;48.770;9.190;2023-06-22T14:52:40;8.30;;;4.50;;
5127;SDS011;2582;48.770;9.190;2023-06-22T14:55:06;4.87;;;3.70;;
5127;SDS011;2582;48.770;9.190;2023-06-22T14:57:32;7.97;;;4.00;;
5127;SDS011;2582;48.770;9.190;2023-06-22T14:59:58;8.60;;;3.57;;
5127;SDS011;2582;48.770;9.190;2023-06-22T15:02:23;5.17;;;3.47;;
5127;SDS011;2582;48.770;9.190;2023-06-22T15:04:49;17.27;;;4.53;;
5127;SDS011;2582;48.770;9.190;2023-06-22T15:07:15;9.87;;;3.60;;